sensor_id;sensor_type;location;lat;lon;timestamp;pressure;altitude;pressure_sealevel;temperature;humidity
15050;BME280;7622;42.724;23.250;2023-03-03T00:01:40;94714.50;;;4.13;100.00
15050;BME280;7622;42.724;23.250;2023-03-03T00:04:08;94709.38;;;4.13;100.00
15050;BME280;7622;42.724;23.250;2023-03-03T00:06:35;94707.50;;;4.15;100.00
15050;BME280;7622;42.724;23.250;2023-03-03T00:09:05;94715.03;;;4.18;100.00
15050;BME280;7622;42.724;23.250;2023-03-03T00:11:39;94711.84;;;4.15;100.00
15050;BME280;7622;42.724;23.250;2023-03-03T00:14:17;94703.41;;;4.00;100.00
15050;BME280;7622;42.724;23.250;2023-03-03T00:16:46;94704.03;;;4.04;100.00
15050;BME280;7622;42.724;23.250;2023-03-03T00:19:16;94708.56;;;4.00;100.00
15050;BME280;7622;42.724;23.250;2023-03-03T00:21:45;94700.44;;;4.06;100.00
15050;BME280;7622;42.724;23.250;2023-03-03T00:24:18;94701.34;;;4.05;100.00
15050;BME280;7622;42.724;23.250;2023-03-03T00:26:48;94692.50;;;4.09;100.00
15050;BME280;7622;42.724;23.250;2023-03-03T00:29:37;94693.94;;;4.13;100.00
15050;BME280;7622;42.724;23.250;2023-03-03T00:32:26;94698.88;;;4.16;100.00
15050;BME280;7622;42.724;23.250;2023-03-03T00:34:55;94703.91;;;4.05;100.00
15050;BME280;7622;42.724;23.250;2023-03-03T00:37:29;94696.41;;;4.02;100.00
15050;BME280;7622;42.724;23.250;2023-03-03T00:40:19;94687.47;;;3.95;100.00
15050;BME280;7622;42.724;23.250;2023-03-03T00:42:59;94690.44;;;3.89;100.00
15050;BME280;7622;42.724;23.250;2023-03-03T00:45:29;94684.63;;;3.87;100.00
15050;BME280;7622;42.724;23.250;2023-03-03T00:48:18;94682.47;;;3.93;100.00
15050;BME280;7622;42.724;23.250;2023-03-03T00:50:46;94683.47;;;3.91;100.00
15050;BME280;7622;42.724;23.250;2023-03-03T00:53:15;94682.22;;;3.96;100.00
15050;BME280;7622;42.724;23.250;2023-03-03T00:55:44;94670.63;;;3.91;100.00
15050;BME280;7622;42.724;23.250;2023-03-03T00:58:13;94661.06;;;3.80;100.00
15050;BME280;7622;42.724;23.250;2023-03-03T01:00:42;94670.00;;;3.75;100.00
15050;BME280;7622;42.724;23.250;2023-03-03T01:03:12;94655.91;;;3.68;100.00
15050;BME280;7622;42.724;23.250;2023-03-03T01:05:40;94651.31;;;3.73;100.00
15050;BME280;7622;42.724;23.250;2023-03-03T01:08:07;94650.78;;;3.80;100.00
15050;BME280;7622;42.724;23.250;2023-03-03T01:10:37;94658.94;;;3.87;100.00
15050;BME280;7622;42.724;23.250;2023-03-03T01:13:05;94652.84;;;3.88;100.00
15050;BME280;7622;42.724;23.250;2023-03-03T01:15:35;94654.16;;;3.81;100.00
15050;BME280;7622;42.724;23.250;2023-03-03T01:18:03;94649.16;;;3.79;100.00
15050;BME280;7622;42.724;23.250;2023-03-03T01:20:31;94652.44;;;3.81;100.00
15050;BME280;7622;42.724;23.250;2023-03-03T01:22:58;94643.81;;;3.82;100.00
15050;BME280;7622;42.724;23.250;2023-03-03T01:25:25;94650.47;;;3.97;100.00
15050;BME280;7622;42.724;23.250;2023-03-03T01:27:53;94646.50;;;3.93;100.00
15050;BME280;7622;42.724;23.250;2023-03-03T01:30:20;94648.72;;;3.98;100.00
15050;BME280;7622;42.724;23.250;2023-03-03T01:32:49;94651.63;;;3.93;100.00
15050;BME280;7622;42.724;23.250;2023-03-03T01:35:17;94651.31;;;3.98;100.00
15050;BME280;7622;42.724;23.250;2023-03-03T01:37:45;94651.19;;;4.00;100.00
15050;BME280;7622;42.724;23.250;2023-03-03T01:40:16;94649.63;;;4.10;100.00
15050;BME280;7622;42.724;23.250;2023-03-03T01:42:44;94641.53;;;4.03;100.00
15050;BME280;7622;42.724;23.250;2023-03-03T01:45:21;94645.41;;;4.09;100.00
15050;BME280;7622;42.724;23.250;2023-03-03T01:47:53;94646.75;;;4.02;100.00
15050;BME280;7622;42.724;23.250;2023-03-03T01:50:31;94637.66;;;3.85;100.00
15050;BME280;7622;42.724;23.250;2023-03-03T01:53:00;94636.72;;;3.99;100.00
15050;BME280;7622;42.724;23.250;2023-03-03T01:55:31;94642.78;;;3.97;100.00
15050;BME280;7622;42.724;23.250;2023-03-03T01:58:02;94640.94;;;4.00;100.00
15050;BME280;7622;42.724;23.250;2023-03-03T02:00:33;94633.41;;;3.96;100.00
15050;BME280;7622;42.724;23.250;2023-03-03T02:03:03;94633.31;;;3.98;100.00
15050;BME280;7622;42.724;23.250;2023-03-03T02:05:31;94641.44;;;3.92;100.00
15050;BME280;7622;42.724;23.250;2023-03-03T02:07:58;94638.13;;;4.03;100.00
15050;BME280;7622;42.724;23.250;2023-03-03T02:10:26;94637.31;;;3.89;100.00
15050;BME280;7622;42.724;23.250;2023-03-03T02:12:55;94642.28;;;3.92;100.00
15050;BME280;7622;42.724;23.250;2023-03-03T02:15:25;94631.47;;;4.00;100.00
15050;BME280;7622;42.724;23.250;2023-03-03T02:17:54;94619.56;;;3.86;100.00
15050;BME280;7622;42.724;23.250;2023-03-03T02:20:34;94633.94;;;3.89;100.00
15050;BME280;7622;42.724;23.250;2023-03-03T02:23:08;94637.22;;;4.04;100.00
15050;BME280;7622;42.724;23.250;2023-03-03T02:25:44;94636.38;;;4.03;100.00
15050;BME280;7622;42.724;23.250;2023-03-03T02:28:19;94637.31;;;4.02;100.00
15050;BME280;7622;42.724;23.250;2023-03-03T02:30:46;94631.66;;;3.97;100.00
15050;BME280;7622;42.724;23.250;2023-03-03T02:33:14;94638.03;;;4.04;100.00
15050;BME280;7622;42.724;23.250;2023-03-03T02:35:41;94629.81;;;4.12;100.00
15050;BME280;7622;42.724;23.250;2023-03-03T02:38:16;94630.81;;;4.09;100.00
15050;BME280;7622;42.724;23.250;2023-03-03T02:40:54;94626.72;;;4.07;100.00
15050;BME280;7622;42.724;23.250;2023-03-03T02:43:30;94631.47;;;3.87;100.00
15050;BME280;7622;42.724;23.250;2023-03-03T02:46:00;94632.28;;;3.88;100.00
15050;BME280;7622;42.724;23.250;2023-03-03T02:48:27;94630.94;;;3.95;100.00
15050;BME280;7622;42.724;23.250;2023-03-03T02:50:54;94629.22;;;3.83;100.00
15050;BME280;7622;42.724;23.250;2023-03-03T02:53:21;94627.56;;;3.82;100.00
15050;BME280;7622;42.724;23.250;2023-03-03T02:55:48;94627.38;;;3.85;100.00
15050;BME280;7622;42.724;23.250;2023-03-03T02:58:16;94630.03;;;3.83;100.00
15050;BME280;7622;42.724;23.250;2023-03-03T03:00:45;94622.66;;;3.79;100.00
15050;BME280;7622;42.724;23.250;2023-03-03T03:03:13;94614.94;;;3.79;100.00
15050;BME280;7622;42.724;23.250;2023-03-03T03:05:40;94618.94;;;3.83;100.00
15050;BME280;7622;42.724;23.250;2023-03-03T03:08:08;94616.47;;;3.81;100.00
15050;BME280;7622;42.724;23.250;2023-03-03T03:10:35;94617.50;;;3.79;100.00
15050;BME280;7622;42.724;23.250;2023-03-03T03:13:03;94612.16;;;3.69;100.00
15050;BME280;7622;42.724;23.250;2023-03-03T03:15:30;94616.59;;;3.80;100.00
15050;BME280;7622;42.724;23.250;2023-03-03T03:17:59;94614.72;;;3.82;100.00
15050;BME280;7622;42.724;23.250;2023-03-03T03:20:26;94620.59;;;3.84;100.00
15050;BME280;7622;42.724;23.250;2023-03-03T03:22:54;94612.47;;;3.90;100.00
15050;BME280;7622;42.724;23.250;2023-03-03T03:25:21;94613.38;;;3.89;100.00
15050;BME280;7622;42.724;23.250;2023-03-03T03:27:49;94607.66;;;3.85;100.00
15050;BME280;7622;42.724;23.250;2023-03-03T03:30:17;94604.66;;;3.79;100.00
15050;BME280;7622;42.724;23.250;2023-03-03T03:32:47;94609.06;;;3.89;100.00
15050;BME280;7622;42.724;23.250;2023-03-03T03:35:16;94602.59;;;3.84;100.00
15050;BME280;7622;42.724;23.250;2023-03-03T03:37:43;94611.34;;;3.94;100.00
15050;BME280;7622;42.724;23.250;2023-03-03T03:40:11;94609.59;;;3.82;100.00
15050;BME280;7622;42.724;23.250;2023-03-03T03:42:39;94605.59;;;3.78;100.00
15050;BME280;7622;42.724;23.250;2023-03-03T03:45:07;94600.66;;;3.75;100.00
15050;BME280;7622;42.724;23.250;2023-03-03T03:47:39;94604.97;;;3.87;100.00
15050;BME280;7622;42.724;23.250;2023-03-03T03:50:08;94593.97;;;3.85;100.00
15050;BME280;7622;42.724;23.250;2023-03-03T03:52:39;94604.31;;;3.96;100.00
15050;BME280;7622;42.724;23.250;2023-03-03T03:55:09;94599.31;;;3.82;100.00
15050;BME280;7622;42.724;23.250;2023-03-03T03:57:36;94603.84;;;3.78;100.00
15050;BME280;7622;42.724;23.250;2023-03-03T04:00:04;94596.25;;;3.77;100.00
15050;BME280;7622;42.724;23.250;2023-03-03T04:02:33;94601.44;;;3.88;100.00
15050;BME280;7622;42.724;23.250;2023-03-03T04:05:00;94597.56;;;3.70;100.00
15050;BME280;7622;42.724;23.250;2023-03-03T04:07:28;94599.84;;;3.62;100.00
15050;BME280;7622;42.724;23.250;2023-03-03T04:09:57;94599.00;;;3.61;100.00
15050;BME280;7622;42.724;23.250;2023-03-03T04:12:24;94596.78;;;3.56;100.00
15050;BME280;7622;42.724;23.250;2023-03-03T04:14:52;94591.41;;;3.60;100.00
15050;BME280;7622;42.724;23.250;2023-03-03T04:17:21;94603.13;;;3.64;100.00
15050;BME280;7622;42.724;23.250;2023-03-03T04:19:52;94594.72;;;3.62;100.00
15050;BME280;7622;42.724;23.250;2023-03-03T04:22:19;94595.66;;;3.73;100.00
15050;BME280;7622;42.724;23.250;2023-03-03T04:24:47;94591.19;;;3.75;100.00
15050;BME280;7622;42.724;23.250;2023-03-03T04:27:15;94593.06;;;3.73;100.00
15050;BME280;7622;42.724;23.250;2023-03-03T04:29:42;94594.91;;;3.84;100.00
15050;BME280;7622;42.724;23.250;2023-03-03T04:32:10;94600.41;;;4.03;100.00
15050;BME280;7622;42.724;23.250;2023-03-03T04:34:37;94594.47;;;3.90;100.00
15050;BME280;7622;42.724;23.250;2023-03-03T04:37:04;94588.50;;;3.89;100.00
15050;BME280;7622;42.724;23.250;2023-03-03T04:39:31;94588.31;;;3.92;100.00
15050;BME280;7622;42.724;23.250;2023-03-03T04:42:00;94583.78;;;3.96;100.00
15050;BME280;7622;42.724;23.250;2023-03-03T04:44:29;94587.78;;;4.00;100.00
15050;BME280;7622;42.724;23.250;2023-03-03T04:46:56;94592.13;;;3.87;100.00
15050;BME280;7622;42.724;23.250;2023-03-03T04:49:23;94593.34;;;3.94;100.00
15050;BME280;7622;42.724;23.250;2023-03-03T04:51:50;94590.97;;;3.91;100.00
15050;BME280;7622;42.724;23.250;2023-03-03T04:54:18;94592.31;;;3.84;100.00
15050;BME280;7622;42.724;23.250;2023-03-03T04:56:45;94594.47;;;3.90;100.00
15050;BME280;7622;42.724;23.250;2023-03-03T04:59:12;94599.41;;;3.93;100.00
15050;BME280;7622;42.724;23.250;2023-03-03T05:01:41;94605.25;;;3.95;100.00
15050;BME280;7622;42.724;23.250;2023-03-03T05:04:08;94600.75;;;3.86;100.00
15050;BME280;7622;42.724;23.250;2023-03-03T05:06:35;94598.19;;;3.86;100.00
15050;BME280;7622;42.724;23.250;2023-03-03T05:09:03;94539.06;;;3.49;100.00
15050;BME280;7622;42.724;23.250;2023-03-03T05:11:30;94605.06;;;3.98;100.00
15050;BME280;7622;42.724;23.250;2023-03-03T05:13:58;94605.25;;;3.95;100.00
15050;BME280;7622;42.724;23.250;2023-03-03T05:16:25;94604.75;;;3.90;100.00
15050;BME280;7622;42.724;23.250;2023-03-03T05:18:54;94606.81;;;3.85;100.00
15050;BME280;7622;42.724;23.250;2023-03-03T05:21:25;94606.69;;;3.99;100.00
15050;BME280;7622;42.724;23.250;2023-03-03T05:23:52;94601.84;;;3.94;100.00
15050;BME280;7622;42.724;23.250;2023-03-03T05:26:19;94600.63;;;4.00;100.00
15050;BME280;7622;42.724;23.250;2023-03-03T05:28:47;94608.66;;;3.95;100.00
15050;BME280;7622;42.724;23.250;2023-03-03T05:31:14;94603.63;;;3.81;100.00
15050;BME280;7622;42.724;23.250;2023-03-03T05:33:41;94607.75;;;3.84;100.00
15050;BME280;7622;42.724;23.250;2023-03-03T05:36:09;94607.13;;;3.93;100.00
15050;BME280;7622;42.724;23.250;2023-03-03T05:38:37;94605.78;;;4.00;100.00
15050;BME280;7622;42.724;23.250;2023-03-03T05:41:10;94616.47;;;3.94;100.00
15050;BME280;7622;42.724;23.250;2023-03-03T05:43:37;94608.84;;;4.05;100.00
15050;BME280;7622;42.724;23.250;2023-03-03T05:46:05;94606.69;;;3.99;100.00
15050;BME280;7622;42.724;23.250;2023-03-03T05:48:32;94617.47;;;4.04;100.00
15050;BME280;7622;42.724;23.250;2023-03-03T05:50:59;94619.19;;;4.16;100.00
15050;BME280;7622;42.724;23.250;2023-03-03T05:53:28;94619.13;;;4.05;100.00
15050;BME280;7622;42.724;23.250;2023-03-03T05:55:56;94618.69;;;4.11;100.00
15050;BME280;7622;42.724;23.250;2023-03-03T05:58:25;94621.88;;;4.02;100.00
15050;BME280;7622;42.724;23.250;2023-03-03T06:00:56;94619.53;;;3.99;100.00
15050;BME280;7622;42.724;23.250;2023-03-03T06:03:23;94619.31;;;4.02;100.00
15050;BME280;7622;42.724;23.250;2023-03-03T06:05:50;94620.38;;;4.00;100.00
15050;BME280;7622;42.724;23.250;2023-03-03T06:08:17;94621.28;;;3.99;100.00
15050;BME280;7622;42.724;23.250;2023-03-03T06:10:46;94623.22;;;3.95;100.00
15050;BME280;7622;42.724;23.250;2023-03-03T06:13:13;94623.38;;;3.93;100.00
15050;BME280;7622;42.724;23.250;2023-03-03T06:15:40;94620.38;;;4.00;100.00
15050;BME280;7622;42.724;23.250;2023-03-03T06:18:08;94621.19;;;3.87;100.00
15050;BME280;7622;42.724;23.250;2023-03-03T06:20:36;94617.09;;;3.85;100.00
15050;BME280;7622;42.724;23.250;2023-03-03T06:23:03;94625.19;;;3.91;100.00
15050;BME280;7622;42.724;23.250;2023-03-03T06:25:30;94625.66;;;4.22;100.00
15050;BME280;7622;42.724;23.250;2023-03-03T06:28:01;94625.13;;;4.29;100.00
15050;BME280;7622;42.724;23.250;2023-03-03T06:30:29;94625.66;;;4.22;100.00
15050;BME280;7622;42.724;23.250;2023-03-03T06:32:56;94626.84;;;4.05;100.00
15050;BME280;7622;42.724;23.250;2023-03-03T06:35:23;94616.97;;;3.99;100.00
15050;BME280;7622;42.724;23.250;2023-03-03T06:37:50;94628.56;;;4.17;100.00
15050;BME280;7622;42.724;23.250;2023-03-03T06:40:18;94602.88;;;4.05;100.00
15050;BME280;7622;42.724;23.250;2023-03-03T06:42:45;94635.31;;;4.31;100.00
15050;BME280;7622;42.724;23.250;2023-03-03T06:45:14;94635.06;;;4.47;100.00
15050;BME280;7622;42.724;23.250;2023-03-03T06:47:41;94628.66;;;4.52;100.00
15050;BME280;7622;42.724;23.250;2023-03-03T06:50:09;94638.34;;;4.49;100.00
15050;BME280;7622;42.724;23.250;2023-03-03T06:52:37;94634.44;;;4.56;100.00
15050;BME280;7622;42.724;23.250;2023-03-03T06:55:11;94639.56;;;4.56;100.00
15050;BME280;7622;42.724;23.250;2023-03-03T06:57:39;94639.28;;;4.71;100.00
15050;BME280;7622;42.724;23.250;2023-03-03T07:00:15;94630.50;;;4.63;100.00
15050;BME280;7622;42.724;23.250;2023-03-03T07:02:43;94639.94;;;5.10;100.00
15050;BME280;7622;42.724;23.250;2023-03-03T07:05:13;94643.81;;;5.50;100.00
15050;BME280;7622;42.724;23.250;2023-03-03T07:07:41;94641.25;;;5.15;100.00
15050;BME280;7622;42.724;23.250;2023-03-03T07:10:17;94638.50;;;5.06;100.00
15050;BME280;7622;42.724;23.250;2023-03-03T07:12:46;94633.31;;;5.19;100.00
15050;BME280;7622;42.724;23.250;2023-03-03T07:15:16;94630.84;;;5.17;100.00
15050;BME280;7622;42.724;23.250;2023-03-03T07:17:48;94638.50;;;5.06;100.00
15050;BME280;7622;42.724;23.250;2023-03-03T07:20:19;94638.50;;;5.06;100.00
15050;BME280;7622;42.724;23.250;2023-03-03T07:22:47;94636.50;;;4.98;100.00
15050;BME280;7622;42.724;23.250;2023-03-03T07:25:20;94633.44;;;4.93;100.00
15050;BME280;7622;42.724;23.250;2023-03-03T07:27:48;94638.31;;;4.85;100.00
15050;BME280;7622;42.724;23.250;2023-03-03T07:30:24;94634.91;;;4.85;100.00
15050;BME280;7622;42.724;23.250;2023-03-03T07:32:52;94636.56;;;4.86;100.00
15050;BME280;7622;42.724;23.250;2023-03-03T07:35:36;94636.94;;;4.92;100.00
15050;BME280;7622;42.724;23.250;2023-03-03T07:38:15;94633.69;;;4.90;100.00
15050;BME280;7622;42.724;23.250;2023-03-03T07:40:46;94634.09;;;4.84;100.00
15050;BME280;7622;42.724;23.250;2023-03-03T07:43:28;94632.41;;;4.96;100.00
15050;BME280;7622;42.724;23.250;2023-03-03T07:46:02;94637.84;;;4.91;100.00
15050;BME280;7622;42.724;23.250;2023-03-03T07:48:35;94632.78;;;5.02;100.00
15050;BME280;7622;42.724;23.250;2023-03-03T07:51:10;94632.34;;;5.08;100.00
15050;BME280;7622;42.724;23.250;2023-03-03T07:53:38;94630.13;;;5.15;100.00
15050;BME280;7622;42.724;23.250;2023-03-03T07:56:14;94618.81;;;5.29;100.00
15050;BME280;7622;42.724;23.250;2023-03-03T07:58:42;94626.28;;;5.21;100.00
15050;BME280;7622;42.724;23.250;2023-03-03T08:01:40;94620.66;;;5.15;100.00
15050;BME280;7622;42.724;23.250;2023-03-03T08:04:21;94620.56;;;5.28;100.00
15050;BME280;7622;42.724;23.250;2023-03-03T08:06:53;94615.59;;;5.38;100.00
15050;BME280;7622;42.724;23.250;2023-03-03T08:09:36;94621.00;;;5.46;100.00
15050;BME280;7622;42.724;23.250;2023-03-03T08:12:29;94621.94;;;5.56;100.00
15050;BME280;7622;42.724;23.250;2023-03-03T08:15:09;94629.31;;;5.61;100.00
15050;BME280;7622;42.724;23.250;2023-03-03T08:17:41;94622.09;;;5.66;100.00
15050;BME280;7622;42.724;23.250;2023-03-03T08:20:41;94626.53;;;5.75;100.00
15050;BME280;7622;42.724;23.250;2023-03-03T08:23:09;94622.75;;;5.57;100.00
15050;BME280;7622;42.724;23.250;2023-03-03T08:25:37;94602.16;;;5.57;100.00
15050;BME280;7622;42.724;23.250;2023-03-03T08:28:04;94597.81;;;5.68;100.00
15050;BME280;7622;42.724;23.250;2023-03-03T08:30:30;94616.16;;;5.87;100.00
15050;BME280;7622;42.724;23.250;2023-03-03T08:32:59;94608.44;;;5.87;100.00
15050;BME280;7622;42.724;23.250;2023-03-03T08:35:26;94608.97;;;5.80;100.00
15050;BME280;7622;42.724;23.250;2023-03-03T08:37:53;94614.22;;;5.67;100.00
15050;BME280;7622;42.724;23.250;2023-03-03T08:40:20;94599.94;;;5.63;100.00
15050;BME280;7622;42.724;23.250;2023-03-03T08:42:47;94611.94;;;5.98;100.00
15050;BME280;7622;42.724;23.250;2023-03-03T08:45:14;94612.19;;;5.95;100.00
15050;BME280;7622;42.724;23.250;2023-03-03T08:47:41;94611.66;;;5.78;100.00
15050;BME280;7622;42.724;23.250;2023-03-03T08:50:11;94606.06;;;5.96;100.00
15050;BME280;7622;42.724;23.250;2023-03-03T08:52:38;94611.25;;;6.07;100.00
15050;BME280;7622;42.724;23.250;2023-03-03T08:55:05;94605.13;;;5.97;100.00
15050;BME280;7622;42.724;23.250;2023-03-03T08:57:32;94606.25;;;5.70;100.00
15050;BME280;7622;42.724;23.250;2023-03-03T08:59:58;94584.69;;;5.38;100.00
15050;BME280;7622;42.724;23.250;2023-03-03T09:02:25;94611.41;;;5.70;100.00
15050;BME280;7622;42.724;23.250;2023-03-03T09:04:52;94619.66;;;5.86;100.00
15050;BME280;7622;42.724;23.250;2023-03-03T09:07:20;94613.34;;;5.90;100.00
15050;BME280;7622;42.724;23.250;2023-03-03T09:09:47;94611.94;;;5.98;100.00
15050;BME280;7622;42.724;23.250;2023-03-03T09:12:16;94615.78;;;6.03;100.00
15050;BME280;7622;42.724;23.250;2023-03-03T09:14:43;94611.00;;;6.10;100.00
15050;BME280;7622;42.724;23.250;2023-03-03T09:17:25;94616.38;;;6.18;100.00
15050;BME280;7622;42.724;23.250;2023-03-03T09:19:54;94610.06;;;6.11;100.00
15050;BME280;7622;42.724;23.250;2023-03-03T09:22:25;94612.84;;;6.30;100.00
15050;BME280;7622;42.724;23.250;2023-03-03T09:24:53;94608.91;;;6.15;100.00
15050;BME280;7622;42.724;23.250;2023-03-03T09:27:26;94611.13;;;6.19;100.00
15050;BME280;7622;42.724;23.250;2023-03-03T09:29:54;94609.34;;;6.20;100.00
15050;BME280;7622;42.724;23.250;2023-03-03T09:32:29;94598.44;;;6.27;100.00
15050;BME280;7622;42.724;23.250;2023-03-03T09:34:57;94593.53;;;6.02;100.00
15050;BME280;7622;42.724;23.250;2023-03-03T09:37:28;94611.47;;;6.26;100.00
15050;BME280;7622;42.724;23.250;2023-03-03T09:39:59;94620.59;;;6.19;100.00
15050;BME280;7622;42.724;23.250;2023-03-03T09:42:49;94614.00;;;6.37;100.00
15050;BME280;7622;42.724;23.250;2023-03-03T09:45:36;94607.00;;;6.28;100.00
15050;BME280;7622;42.724;23.250;2023-03-03T09:48:25;94617.06;;;6.42;100.00
15050;BME280;7622;42.724;23.250;2023-03-03T09:51:06;94613.53;;;6.43;100.00
15050;BME280;7622;42.724;23.250;2023-03-03T09:53:54;94612.25;;;6.38;100.00
15050;BME280;7622;42.724;23.250;2023-03-03T09:56:31;94612.13;;;6.39;100.00
15050;BME280;7622;42.724;23.250;2023-03-03T09:59:11;94604.84;;;6.55;100.00
15050;BME280;7622;42.724;23.250;2023-03-03T10:01:50;94603.81;;;7.42;100.00
15050;BME280;7622;42.724;23.250;2023-03-03T10:04:35;94597.78;;;7.32;100.00
15050;BME280;7622;42.724;23.250;2023-03-03T10:07:16;94600.25;;;7.02;100.00
15050;BME280;7622;42.724;23.250;2023-03-03T10:10:02;94590.38;;;6.75;100.00
15050;BME280;7622;42.724;23.250;2023-03-03T10:12:35;94560.78;;;6.47;100.00
15050;BME280;7622;42.724;23.250;2023-03-03T10:15:18;94597.53;;;6.71;100.00
15050;BME280;7622;42.724;23.250;2023-03-03T10:17:49;94594.22;;;6.81;100.00
15050;BME280;7622;42.724;23.250;2023-03-03T10:20:33;94590.47;;;6.73;100.00
15050;BME280;7622;42.724;23.250;2023-03-03T10:23:09;94521.41;;;6.34;100.00
15050;BME280;7622;42.724;23.250;2023-03-03T10:25:52;94588.28;;;6.69;100.00
15050;BME280;7622;42.724;23.250;2023-03-03T10:28:44;94582.50;;;6.77;100.00
15050;BME280;7622;42.724;23.250;2023-03-03T10:31:22;94574.19;;;6.73;100.00
15050;BME280;7622;42.724;23.250;2023-03-03T10:33:56;94585.75;;;6.79;100.00
15050;BME280;7622;42.724;23.250;2023-03-03T10:36:34;94578.41;;;6.74;100.00
15050;BME280;7622;42.724;23.250;2023-03-03T10:39:21;94578.75;;;7.01;100.00
15050;BME280;7622;42.724;23.250;2023-03-03T10:42:01;94579.66;;;6.80;100.00
15050;BME280;7622;42.724;23.250;2023-03-03T10:44:56;94575.38;;;6.69;100.00
15050;BME280;7622;42.724;23.250;2023-03-03T10:47:40;94578.00;;;6.90;100.00
15050;BME280;7622;42.724;23.250;2023-03-03T10:50:16;94572.94;;;6.88;100.00
15050;BME280;7622;42.724;23.250;2023-03-03T10:52:51;94576.97;;;6.81;100.00
15050;BME280;7622;42.724;23.250;2023-03-03T10:55:34;94563.69;;;6.86;100.00
15050;BME280;7622;42.724;23.250;2023-03-03T10:58:20;94564.00;;;6.92;100.00
15050;BME280;7622;42.724;23.250;2023-03-03T11:00:52;94560.88;;;6.89;100.00
15050;BME280;7622;42.724;23.250;2023-03-03T11:03:38;94553.13;;;6.89;100.00
15050;BME280;7622;42.724;23.250;2023-03-03T11:06:13;94566.34;;;6.95;100.00
15050;BME280;7622;42.724;23.250;2023-03-03T11:08:46;94557.13;;;6.82;100.00
15050;BME280;7622;42.724;23.250;2023-03-03T11:11:19;94551.25;;;6.91;100.00
15050;BME280;7622;42.724;23.250;2023-03-03T11:13:57;94557.25;;;7.12;100.00
15050;BME280;7622;42.724;23.250;2023-03-03T11:16:42;94546.44;;;7.07;100.00
15050;BME280;7622;42.724;23.250;2023-03-03T11:19:50;94539.66;;;7.06;100.00
15050;BME280;7622;42.724;23.250;2023-03-03T11:22:32;94545.72;;;7.16;100.00
15050;BME280;7622;42.724;23.250;2023-03-03T11:25:07;94537.84;;;7.18;100.00
15050;BME280;7622;42.724;23.250;2023-03-03T11:30:45;94533.31;;;7.10;100.00
15050;BME280;7622;42.724;23.250;2023-03-03T11:33:20;94540.16;;;7.21;100.00
15050;BME280;7622;42.724;23.250;2023-03-03T11:35:52;94501.38;;;7.11;100.00
15050;BME280;7622;42.724;23.250;2023-03-03T11:38:56;94539.28;;;7.31;100.00
15050;BME280;7622;42.724;23.250;2023-03-03T11:41:33;94530.00;;;7.49;100.00
15050;BME280;7622;42.724;23.250;2023-03-03T11:44:08;94510.25;;;6.97;100.00
15050;BME280;7622;42.724;23.250;2023-03-03T11:46:42;94536.94;;;7.07;100.00
15050;BME280;7622;42.724;23.250;2023-03-03T11:49:14;94513.38;;;7.01;100.00
15050;BME280;7622;42.724;23.250;2023-03-03T11:51:49;94528.25;;;7.08;100.00
15050;BME280;7622;42.724;23.250;2023-03-03T11:54:21;94532.19;;;6.92;100.00
15050;BME280;7622;42.724;23.250;2023-03-03T11:56:50;94519.69;;;6.87;100.00
15050;BME280;7622;42.724;23.250;2023-03-03T11:59:43;94523.22;;;7.07;100.00
15050;BME280;7622;42.724;23.250;2023-03-03T12:05:33;94530.00;;;6.87;100.00
15050;BME280;7622;42.724;23.250;2023-03-03T12:08:10;94524.78;;;6.78;100.00
15050;BME280;7622;42.724;23.250;2023-03-03T12:10:43;94528.53;;;6.73;100.00
15050;BME280;7622;42.724;23.250;2023-03-03T12:13:19;94520.09;;;6.71;100.00
15050;BME280;7622;42.724;23.250;2023-03-03T12:15:52;94520.50;;;6.88;100.00
15050;BME280;7622;42.724;23.250;2023-03-03T12:18:39;94527.47;;;6.76;100.00
15050;BME280;7622;42.724;23.250;2023-03-03T12:21:22;94520.00;;;6.94;100.00
15050;BME280;7622;42.724;23.250;2023-03-03T12:24:10;94534.63;;;6.84;100.00
15050;BME280;7622;42.724;23.250;2023-03-03T12:26:48;94528.63;;;6.83;100.00
15050;BME280;7622;42.724;23.250;2023-03-03T12:29:25;94527.53;;;6.86;100.00
15050;BME280;7622;42.724;23.250;2023-03-03T12:31:59;94525.53;;;6.68;100.00
15050;BME280;7622;42.724;23.250;2023-03-03T12:34:35;94529.81;;;6.79;100.00
15050;BME280;7622;42.724;23.250;2023-03-03T12:37:15;94531.81;;;6.76;100.00
15050;BME280;7622;42.724;23.250;2023-03-03T12:39:54;94536.06;;;6.77;100.00
15050;BME280;7622;42.724;23.250;2023-03-03T12:42:37;94532.25;;;6.81;100.00
15050;BME280;7622;42.724;23.250;2023-03-03T12:45:22;94526.47;;;6.67;100.00
15050;BME280;7622;42.724;23.250;2023-03-03T12:47:59;94531.91;;;6.53;100.00
15050;BME280;7622;42.724;23.250;2023-03-03T12:50:35;94539.69;;;6.42;100.00
15050;BME280;7622;42.724;23.250;2023-03-03T12:53:16;94533.94;;;6.39;100.00
15050;BME280;7622;42.724;23.250;2023-03-03T12:55:51;94530.31;;;6.30;100.00
15050;BME280;7622;42.724;23.250;2023-03-03T12:58:29;94534.19;;;6.36;100.00
15050;BME280;7622;42.724;23.250;2023-03-03T13:01:10;94530.72;;;6.14;100.00
15050;BME280;7622;42.724;23.250;2023-03-03T13:03:47;94532.22;;;6.28;100.00
15050;BME280;7622;42.724;23.250;2023-03-03T13:06:22;94526.31;;;6.37;100.00
15050;BME280;7622;42.724;23.250;2023-03-03T13:09:17;94528.22;;;6.35;100.00
15050;BME280;7622;42.724;23.250;2023-03-03T13:11:58;94528.63;;;6.51;100.00
15050;BME280;7622;42.724;23.250;2023-03-03T13:14:36;94519.94;;;6.52;100.00
15050;BME280;7622;42.724;23.250;2023-03-03T13:17:16;94511.22;;;6.64;100.00
15050;BME280;7622;42.724;23.250;2023-03-03T13:19:48;94487.81;;;6.56;100.00
15050;BME280;7622;42.724;23.250;2023-03-03T13:22:31;94514.81;;;6.73;100.00
15050;BME280;7622;42.724;23.250;2023-03-03T13:25:03;94519.03;;;6.74;100.00
15050;BME280;7622;42.724;23.250;2023-03-03T13:27:37;94515.28;;;6.99;100.00
15050;BME280;7622;42.724;23.250;2023-03-03T13:30:15;94474.03;;;6.88;100.00
15050;BME280;7622;42.724;23.250;2023-03-03T13:32:48;94511.56;;;7.12;100.00
15050;BME280;7622;42.724;23.250;2023-03-03T13:35:32;94515.53;;;7.17;100.00